AGGH/HIR METAR and TAF weather

Enter ICAO airport designator
Station Type Date Time Source
AGGH METAR 2022/11/30 18:00 UTC NOAA

AGGH 301800Z 20004KT 9999 FEW015 FEW015CB SCT027 23/23 Q1004


Station Type Date Time Source
AGGH Decoded METAR 2022/11/30 18:00 UTC NOAA

Honiara / Henderson, Solomon Islands (AGGH) 09-25S 160-03E 9M
Nov 30, 2022 - 01:00 PM EST / 2022.11.30 1800 UTC
Wind: from the SSW (200 degrees) at 5 MPH (4 KT):0
Visibility: greater than 7 mile(s):0
Sky conditions: partly cloudy
Weather: Cumulonimbus clouds observed
Temperature: 73 F (23 C)
Dew Point: 73 F (23 C)
Relative Humidity: 100%
Pressure (altimeter): 29.65 in. Hg (1004 hPa)
ob: AGGH 301800Z 20004KT 9999 FEW015 FEW015CB SCT027 23/23 Q1004
cycle: 18

Station Type Date Time Source
AGGH TAF 2022/11/30 18:27 UTC NOAA

TAF TAF AGGH 301720Z 3018/0118 22008KT 9999 SCT018 PROB40 INTER 3023/0105 5000 TSSH BKN015 FEW017CB

Example: see airport list